Lake Odessa, Michigan
Current Conditions -  °F | °C
As of 3:34 PM on Wednesday 26 Nov 2014 (Local Time) from KY70 Reporting Station
Overcast Overcast  
Wind Chill: 31°   Ceiling: 2600
Heat Index: 31°   Visibility: 10mi
Dew Point: 21°   Wind: 0mph
Humidity: 68%   Direction: NA
Pressure: 30.12"   Gusts: NA
Location:  42.78°N, 85.14°W
Report Text: KY70 262034Z AUTO 00000KT 10SM OVC026 M01/M06 A3012 RMK AO2 T10061059
Loading
Personal Weather Stations






























Interactive Weather Map New forecast layout! Learn more

10-Day Weather Forecast

Advertisements
Track Severe Weather on mobile